This is the latest recevied weather packets stored in our database for station/object K5JLG-10. If no packets are shown the sender has not sent any weather packets the latest 10 day(s).
| Time | Temp. | Humidity | Pressure | Rain* | Wind** | Luminosity | Snow |
|---|---|---|---|---|---|---|---|
| 1777004356 | 24.44° C | 80% | 1005.6 hPa | 0 mm | - | - | - |
| 1777003156 | 24.44° C | 80% | 1005.7 hPa | 0 mm | - | - | - |
| 1777002556 | 25° C | 79% | 1005.9 hPa | 0 mm | - | - | - |
| 1777000756 | 25° C | 79% | 1006.1 hPa | 0 mm | - | - | - |
| 1776997156 | 25.56° C | 77% | 1005.5 hPa | 0 mm | - | - | - |
| 1776995356 | 25.56° C | 77% | 1005.6 hPa | 0 mm | - | - | - |
| 1776994156 | 25.56° C | 76% | 1005.4 hPa | 0 mm | - | - | - |
| 1776992355 | 26.11° C | 75% | 1005.4 hPa | 0 mm | - | - | - |
| 1776989955 | 26.67° C | 73% | 1005.6 hPa | 0 mm | - | - | - |
| 1776989376 | 26.67° C | 73% | 1005.6 hPa | 0 mm | - | - | - |
| 1776986955 | 26.67° C | 73% | 1005.8 hPa | 0 mm | - | - | - |
| 1776986377 | 26.67° C | 72% | 1005.9 hPa | 0 mm | - | - | - |
| 1776985756 | 26.67° C | 72% | 1006 hPa | 0 mm | - | - | - |
| 1776985155 | 26.67° C | 72% | 1006 hPa | 0 mm | - | - | - |
| 1776984555 | 26.67° C | 72% | 1006.2 hPa | 0 mm | - | - | - |
| 1776977355 | 26.67° C | 74% | 1007.3 hPa | 0 mm | - | - | - |
| 1776976757 | 26.67° C | 74% | 1007.6 hPa | 0 mm | - | - | - |
| 1776971357 | 25.56° C | 77% | 1008.9 hPa | 0 mm | - | - | - |
| 1776967157 | 25.56° C | 76% | 1009.5 hPa | 0 mm | - | - | - |
| 1776962357 | 23.33° C | 82% | 1011 hPa | 0 mm | - | - | - |
| 1776958177 | 22.22° C | 85% | 1011.6 hPa | 0 mm | - | - | - |
| 1776957557 | 22.22° C | 86% | 1011.6 hPa | 0 mm | - | - | - |
| 1776952756 | 21.67° C | 86% | 1011.6 hPa | 0 mm | - | - | - |
| 1776948556 | 21.11° C | 87% | 1010.9 hPa | 0 mm | - | - | - |
| 1776944956 | 21.11° C | 87% | 1010.9 hPa | 0 mm | - | - | - |
* Rain latest hour (hover to see other rain measurements)
** Current wind speed in m/s (hover to see current wind gust speed)